createdAt,value
2018-11-25T00:00:11.306Z,1.20
2018-11-25T00:02:39.589Z,1.20
2018-11-25T00:05:09.252Z,1.10
2018-11-25T00:07:38.816Z,1.10
2018-11-25T00:10:07.953Z,1.00
2018-11-25T00:12:36.202Z,0.80
2018-11-25T00:15:05.300Z,0.80
2018-11-25T00:17:33.542Z,0.70
2018-11-25T00:20:02.083Z,0.60
2018-11-25T00:22:30.545Z,0.50
2018-11-25T00:24:58.814Z,0.40
2018-11-25T00:27:27.407Z,0.40
2018-11-25T00:29:55.880Z,0.40
2018-11-25T00:32:24.666Z,0.50
2018-11-25T00:34:53.150Z,0.70
2018-11-25T00:37:22.413Z,0.70
2018-11-25T00:39:50.714Z,0.70
2018-11-25T00:42:19.142Z,0.60
2018-11-25T00:44:48.498Z,0.60
2018-11-25T00:47:17.430Z,0.40
2018-11-25T00:49:45.690Z,0.30
2018-11-25T00:52:14.559Z,0.20
2018-11-25T00:54:43.044Z,0.00
2018-11-25T00:57:11.901Z,0.00
2018-11-25T00:59:40.416Z,0.00
2018-11-25T01:02:08.696Z,0.00
2018-11-25T01:04:37.498Z,0.00
2018-11-25T01:07:05.921Z,-0.10
2018-11-25T01:09:34.370Z,0.00
2018-11-25T01:12:03.414Z,0.00
2018-11-25T01:14:33.027Z,0.00
2018-11-25T01:17:01.644Z,-0.10
2018-11-25T01:19:29.956Z,-0.10
2018-11-25T01:21:58.537Z,-0.10
2018-11-25T01:24:26.989Z,-0.10
2018-11-25T01:26:55.279Z,-0.10
2018-11-25T01:29:24.072Z,-0.10
2018-11-25T01:31:52.934Z,-0.10
2018-11-25T01:34:21.616Z,-0.20
2018-11-25T01:36:49.886Z,-0.20
2018-11-25T01:39:18.703Z,-0.20
2018-11-25T01:41:48.054Z,-0.30
2018-11-25T01:44:16.256Z,-0.30
2018-11-25T01:46:44.760Z,-0.30
2018-11-25T01:49:14.369Z,-0.30
2018-11-25T01:51:43.392Z,-0.30
2018-11-25T01:54:12.407Z,-0.30
2018-11-25T01:56:40.700Z,-0.30
2018-11-25T01:59:08.977Z,-0.30
2018-11-25T02:01:38.097Z,-0.40
2018-11-25T02:04:06.935Z,-0.50
2018-11-25T02:06:36.063Z,-0.60
2018-11-25T02:09:06.435Z,-0.70
2018-11-25T02:11:35.444Z,-0.70
2018-11-25T02:14:04.108Z,-0.80
2018-11-25T02:16:32.728Z,-0.70
2018-11-25T02:19:01.145Z,-0.60
2018-11-25T02:21:29.449Z,-0.60
2018-11-25T02:23:58.029Z,-0.50
2018-11-25T02:26:27.237Z,-0.30
2018-11-25T02:28:55.773Z,-0.30
2018-11-25T02:31:24.112Z,-0.30
2018-11-25T02:33:53.161Z,-0.50
2018-11-25T02:36:21.430Z,-0.60
2018-11-25T02:38:50.451Z,-0.70
2018-11-25T02:41:18.777Z,-0.80
2018-11-25T02:43:47.436Z,-1.00
2018-11-25T02:46:15.956Z,-1.10
2018-11-25T02:48:44.598Z,-1.10
2018-11-25T02:51:13.362Z,-0.90
2018-11-25T02:53:41.948Z,-0.90
2018-11-25T02:56:10.920Z,-1.00
2018-11-25T02:58:39.885Z,-1.00
2018-11-25T03:01:08.598Z,-1.00
2018-11-25T03:03:37.415Z,-0.90
2018-11-25T03:06:12.912Z,-1.00
2018-11-25T03:08:42.462Z,-1.00
2018-11-25T03:11:11.471Z,-1.00
2018-11-25T03:13:39.940Z,-1.10
2018-11-25T03:16:08.325Z,-1.20
2018-11-25T03:18:36.547Z,-1.20
2018-11-25T03:21:05.524Z,-1.30
2018-11-25T03:23:33.879Z,-1.30
2018-11-25T03:26:02.165Z,-1.40
2018-11-25T03:28:31.528Z,-1.30
2018-11-25T03:30:59.821Z,-1.20
2018-11-25T03:33:28.344Z,-1.10
2018-11-25T03:35:57.205Z,-0.90
2018-11-25T03:38:25.522Z,-0.90
2018-11-25T03:40:53.868Z,-0.90
2018-11-25T03:43:23.081Z,-1.00
2018-11-25T03:45:51.694Z,-1.20
2018-11-25T03:48:20.040Z,-1.20
2018-11-25T03:50:48.487Z,-1.20
2018-11-25T03:53:17.335Z,-1.20
2018-11-25T03:55:45.670Z,-1.20
2018-11-25T03:58:14.005Z,-1.20
2018-11-25T04:00:42.332Z,-1.30
2018-11-25T04:03:10.902Z,-1.30
2018-11-25T04:05:40.230Z,-1.30
2018-11-25T04:08:09.542Z,-1.30
2018-11-25T04:10:38.425Z,-1.20
2018-11-25T04:13:06.998Z,-1.30
2018-11-25T04:15:35.291Z,-1.40
2018-11-25T04:18:03.709Z,-1.40
2018-11-25T04:20:32.948Z,-1.50
2018-11-25T04:23:01.620Z,-1.50
2018-11-25T04:25:29.921Z,-1.50
2018-11-25T04:27:58.231Z,-1.40
2018-11-25T04:30:26.654Z,-1.30
2018-11-25T04:32:54.961Z,-1.20
2018-11-25T04:35:23.226Z,-1.20
2018-11-25T04:37:52.711Z,-1.30
2018-11-25T04:40:22.180Z,-1.50
2018-11-25T04:42:50.504Z,-1.50
2018-11-25T04:45:19.074Z,-1.40
2018-11-25T04:47:47.542Z,-0.90
2018-11-25T04:50:18.105Z,-0.90
2018-11-25T04:52:46.931Z,-0.80
2018-11-25T04:55:15.829Z,-0.50
2018-11-25T04:57:53.004Z,-0.50
2018-11-25T05:00:21.430Z,-0.60
2018-11-25T05:02:50.488Z,-0.70
2018-11-25T05:05:18.912Z,-0.60
2018-11-25T05:07:47.518Z,-0.90
2018-11-25T05:10:17.053Z,-1.20
2018-11-25T05:12:45.676Z,-1.20
2018-11-25T05:15:15.947Z,-1.00
2018-11-25T05:17:44.425Z,-1.20
2018-11-25T05:20:13.550Z,-1.30
2018-11-25T05:22:41.900Z,-1.40
2018-11-25T05:25:12.216Z,-1.50
2018-11-25T05:27:40.784Z,-1.50
2018-11-25T05:30:13.196Z,-1.60
2018-11-25T05:32:41.718Z,-1.60
2018-11-25T05:35:12.706Z,-1.50
2018-11-25T05:37:41.610Z,-1.40
2018-11-25T05:40:11.331Z,-1.30
2018-11-25T05:42:39.853Z,-1.20
2018-11-25T05:45:12.570Z,-1.30
2018-11-25T05:47:41.077Z,-1.30
2018-11-25T05:50:14.435Z,-1.30
2018-11-25T05:52:42.989Z,-1.30
2018-11-25T05:55:11.973Z,-1.40
2018-11-25T05:57:40.748Z,-1.40
2018-11-25T06:00:12.932Z,-1.40
2018-11-25T06:02:42.667Z,-1.40
2018-11-25T06:05:11.857Z,-1.30
2018-11-25T06:07:41.148Z,-1.30
2018-11-25T06:10:11.599Z,-1.30
2018-11-25T06:12:40.491Z,-1.20
2018-11-25T06:15:11.975Z,-1.20
2018-11-25T06:17:41.360Z,-1.20
2018-11-25T06:20:13.448Z,-1.20
2018-11-25T06:22:42.556Z,-1.30
2018-11-25T06:25:14.134Z,-1.30
2018-11-25T06:27:42.693Z,-1.40
2018-11-25T06:30:12.895Z,-1.50
2018-11-25T06:32:41.806Z,-1.50
2018-11-25T06:35:12.484Z,-1.50
2018-11-25T06:37:41.373Z,-1.50
2018-11-25T06:40:19.026Z,-1.50
2018-11-25T06:42:47.358Z,-1.50
2018-11-25T06:45:17.897Z,-1.50
2018-11-25T06:47:46.248Z,-1.60
2018-11-25T06:50:14.573Z,-1.60
2018-11-25T06:52:43.336Z,-1.60
2018-11-25T06:55:12.452Z,-1.70
2018-11-25T06:57:41.034Z,-1.70
2018-11-25T07:00:14.110Z,-1.70
2018-11-25T07:02:42.331Z,-1.70
2018-11-25T07:05:10.797Z,-1.70
2018-11-25T07:07:39.642Z,-1.60
2018-11-25T07:10:12.718Z,-1.60
2018-11-25T07:12:40.967Z,-1.50
2018-11-25T07:15:11.208Z,-1.60
2018-11-25T07:17:39.454Z,-1.60
2018-11-25T07:20:11.244Z,-1.60
2018-11-25T07:22:40.973Z,-1.50
2018-11-25T07:25:13.754Z,-1.40
2018-11-25T07:27:42.414Z,-1.50
2018-11-25T07:30:14.659Z,-1.40
2018-11-25T07:32:43.367Z,-1.30
2018-11-25T07:35:12.159Z,-1.20
2018-11-25T07:37:40.812Z,-1.10
2018-11-25T07:40:13.827Z,-1.00
2018-11-25T07:42:43.438Z,-0.90
2018-11-25T07:45:13.725Z,-0.70
2018-11-25T07:47:42.543Z,-0.60
2018-11-25T07:50:11.929Z,-0.40
2018-11-25T07:52:40.781Z,-0.30
2018-11-25T07:55:10.545Z,-0.20
2018-11-25T07:57:38.982Z,-0.20
2018-11-25T08:00:16.964Z,0.00
2018-11-25T08:02:45.609Z,0.00
2018-11-25T08:05:16.160Z,0.30
2018-11-25T08:07:44.421Z,0.40
2018-11-25T08:10:14.427Z,0.50
2018-11-25T08:12:42.960Z,0.70
2018-11-25T08:15:12.650Z,0.80
2018-11-25T08:17:40.920Z,0.80
2018-11-25T08:20:12.290Z,0.80
2018-11-25T08:22:41.484Z,1.00
2018-11-25T08:25:18.348Z,1.10
2018-11-25T08:27:46.570Z,1.30
2018-11-25T08:30:16.857Z,1.40
2018-11-25T08:32:45.446Z,1.60
2018-11-25T08:35:14.796Z,1.70
2018-11-25T08:37:45.363Z,1.90
2018-11-25T08:40:17.027Z,2.00
2018-11-25T08:42:45.248Z,2.10
2018-11-25T08:45:14.194Z,2.20
2018-11-25T08:47:42.669Z,2.30
2018-11-25T08:50:12.068Z,2.30
2018-11-25T08:52:41.487Z,2.60
2018-11-25T08:55:12.034Z,2.50
2018-11-25T08:57:40.381Z,2.70
2018-11-25T09:00:13.434Z,2.80
2018-11-25T09:02:41.774Z,2.80
2018-11-25T09:05:11.346Z,3.00
2018-11-25T09:07:39.938Z,3.10
2018-11-25T09:10:11.545Z,3.10
2018-11-25T09:12:40.085Z,3.30
2018-11-25T09:15:11.980Z,3.30
2018-11-25T09:17:40.389Z,3.50
2018-11-25T09:20:12.932Z,3.50
2018-11-25T09:22:41.312Z,3.60
2018-11-25T09:25:13.108Z,3.60
2018-11-25T09:27:41.382Z,3.60
2018-11-25T09:30:16.986Z,3.60
2018-11-25T09:32:45.310Z,3.70
2018-11-25T09:35:13.534Z,3.70
2018-11-25T09:37:41.758Z,3.80
2018-11-25T09:40:13.410Z,3.80
2018-11-25T09:42:41.835Z,3.80
2018-11-25T09:45:13.070Z,3.90
2018-11-25T09:47:41.640Z,4.00
2018-11-25T09:50:11.900Z,4.10
2018-11-25T09:52:40.628Z,4.20
2018-11-25T09:55:10.352Z,4.30
2018-11-25T09:57:38.554Z,4.40
2018-11-25T10:00:13.548Z,4.50
2018-11-25T10:02:41.819Z,4.60
2018-11-25T10:05:10.959Z,4.70
2018-11-25T10:07:39.359Z,4.70
2018-11-25T10:10:10.726Z,4.90
2018-11-25T10:12:39.359Z,4.90
2018-11-25T10:15:09.133Z,5.10
2018-11-25T10:17:37.514Z,5.10
2018-11-25T10:20:21.547Z,5.20
2018-11-25T10:22:50.132Z,5.30
2018-11-25T10:25:18.521Z,5.40
2018-11-25T10:27:46.917Z,5.50
2018-11-25T10:30:18.378Z,5.60
2018-11-25T10:32:47.962Z,5.60
2018-11-25T10:35:16.313Z,5.70
2018-11-25T10:37:44.581Z,5.90
2018-11-25T10:40:14.010Z,5.80
2018-11-25T10:42:42.237Z,5.90
2018-11-25T10:45:12.673Z,6.00
2018-11-25T10:47:40.985Z,6.20
2018-11-25T10:50:12.511Z,6.30
2018-11-25T10:52:41.148Z,6.30
2018-11-25T10:55:10.488Z,6.40
2018-11-25T10:57:38.972Z,6.50
2018-11-25T11:00:10.993Z,6.50
2018-11-25T11:02:44.497Z,6.60
2018-11-25T11:05:17.342Z,6.70
2018-11-25T11:07:45.874Z,6.80
2018-11-25T11:10:14.131Z,6.90
2018-11-25T11:12:42.337Z,7.00
2018-11-25T11:15:11.543Z,7.00
2018-11-25T11:17:39.769Z,7.10
2018-11-25T11:20:09.944Z,7.20
2018-11-25T11:22:38.269Z,7.30
2018-11-25T11:25:07.957Z,7.40
2018-11-25T11:27:36.285Z,7.40
2018-11-25T11:30:06.901Z,7.50
2018-11-25T11:32:35.272Z,7.50
2018-11-25T11:35:03.941Z,7.50
2018-11-25T11:37:32.169Z,7.60
2018-11-25T11:40:00.612Z,7.60
2018-11-25T11:42:29.001Z,7.60
2018-11-25T11:44:57.120Z,7.70
2018-11-25T11:47:25.546Z,7.60
2018-11-25T11:49:55.040Z,7.70
2018-11-25T11:52:23.365Z,7.90
2018-11-25T11:54:51.576Z,7.90
2018-11-25T11:57:19.797Z,7.90
2018-11-25T11:59:48.288Z,7.80
2018-11-25T12:02:17.094Z,7.80
2018-11-25T12:04:45.968Z,7.80
2018-11-25T12:07:14.469Z,7.90
2018-11-25T12:09:42.731Z,7.90
2018-11-25T12:12:10.946Z,8.00
2018-11-25T12:14:39.232Z,8.10
2018-11-25T12:17:07.797Z,8.00
2018-11-25T12:19:36.072Z,7.90
2018-11-25T12:22:04.306Z,7.80
2018-11-25T12:24:32.937Z,7.80
2018-11-25T12:27:01.435Z,7.80
2018-11-25T12:29:29.800Z,7.80
2018-11-25T12:31:58.215Z,7.90
2018-11-25T12:34:26.577Z,8.00
2018-11-25T12:36:54.809Z,8.00
2018-11-25T12:39:28.257Z,7.90
2018-11-25T12:41:51.790Z,7.90
2018-11-25T12:44:20.037Z,7.80
2018-11-25T12:46:49.478Z,7.80
2018-11-25T12:49:18.626Z,7.80
2018-11-25T12:51:46.905Z,7.80
2018-11-25T12:54:15.300Z,7.80
2018-11-25T12:56:44.030Z,7.80
2018-11-25T12:59:12.770Z,7.80
2018-11-25T13:01:40.961Z,7.70
2018-11-25T13:04:09.156Z,7.70
2018-11-25T13:06:37.673Z,7.70
2018-11-25T13:09:07.436Z,7.90
2018-11-25T13:11:35.863Z,7.80
2018-11-25T13:14:04.107Z,7.80
2018-11-25T13:16:32.659Z,7.80
2018-11-25T13:19:00.865Z,7.80
2018-11-25T13:21:29.098Z,7.70
2018-11-25T13:23:57.373Z,7.70
2018-11-25T13:26:25.889Z,7.80
2018-11-25T13:28:54.191Z,7.80
2018-11-25T13:31:23.180Z,7.70
2018-11-25T13:33:51.644Z,7.70
2018-11-25T13:36:20.023Z,7.70
2018-11-25T13:38:48.338Z,7.70
2018-11-25T13:41:16.611Z,7.70
2018-11-25T13:43:45.073Z,7.70
2018-11-25T13:46:14.026Z,7.70
2018-11-25T13:48:42.294Z,7.80
2018-11-25T13:51:10.874Z,7.80
2018-11-25T13:53:39.674Z,7.70
2018-11-25T13:56:08.104Z,7.70
2018-11-25T13:58:36.410Z,7.70
2018-11-25T14:01:05.215Z,7.80
2018-11-25T14:03:35.348Z,7.70
2018-11-25T14:06:04.349Z,7.70
2018-11-25T14:08:32.640Z,7.60
2018-11-25T14:11:07.454Z,7.50
2018-11-25T14:13:35.788Z,7.40
2018-11-25T14:16:04.966Z,7.40
2018-11-25T14:18:33.162Z,7.30
2018-11-25T14:21:01.419Z,7.30
2018-11-25T14:23:29.692Z,7.30
2018-11-25T14:26:00.366Z,7.30
2018-11-25T14:28:28.585Z,7.30
2018-11-25T14:30:56.982Z,7.20
2018-11-25T14:33:25.441Z,7.20
2018-11-25T14:35:53.673Z,7.10
2018-11-25T14:38:21.920Z,7.10
2018-11-25T14:40:50.681Z,7.00
2018-11-25T14:43:19.049Z,7.00
2018-11-25T14:45:47.348Z,7.00
2018-11-25T14:48:15.748Z,6.90
2018-11-25T14:50:44.214Z,6.90
2018-11-25T14:53:12.553Z,6.80
2018-11-25T14:55:40.801Z,6.70
2018-11-25T14:58:09.301Z,6.70
2018-11-25T15:00:37.511Z,6.60
2018-11-25T15:03:07.337Z,6.60
2018-11-25T15:05:37.915Z,6.40
2018-11-25T15:08:07.342Z,6.40
2018-11-25T15:10:35.637Z,6.40
2018-11-25T15:13:03.874Z,6.30
2018-11-25T15:15:32.216Z,6.20
2018-11-25T15:18:00.442Z,6.20
2018-11-25T15:20:28.911Z,6.10
2018-11-25T15:22:59.925Z,6.00
2018-11-25T15:25:30.105Z,5.90
2018-11-25T15:27:58.423Z,5.70
2018-11-25T15:30:26.781Z,5.70
2018-11-25T15:32:55.108Z,5.60
2018-11-25T15:35:23.462Z,5.50
2018-11-25T15:37:52.812Z,5.20
2018-11-25T15:40:23.534Z,5.00
2018-11-25T15:42:51.738Z,4.80
2018-11-25T15:45:20.028Z,4.60
2018-11-25T15:47:50.223Z,4.30
2018-11-25T15:50:23.052Z,4.10
2018-11-25T15:52:51.350Z,4.00
2018-11-25T15:55:19.842Z,4.10
2018-11-25T15:57:48.827Z,3.90
2018-11-25T16:00:19.019Z,3.80
2018-11-25T16:02:47.585Z,3.70
2018-11-25T16:05:17.775Z,3.50
2018-11-25T16:07:47.257Z,3.40
2018-11-25T16:10:15.561Z,3.30
2018-11-25T16:12:45.166Z,3.20
2018-11-25T16:15:18.233Z,3.10
2018-11-25T16:17:47.004Z,3.00
2018-11-25T16:20:16.393Z,3.00
2018-11-25T16:22:46.239Z,3.00
2018-11-25T16:25:18.217Z,2.90
2018-11-25T16:27:48.815Z,2.90
2018-11-25T16:30:18.307Z,2.80
2018-11-25T16:32:46.784Z,2.80
2018-11-25T16:35:15.229Z,2.80
2018-11-25T16:37:43.527Z,2.70
2018-11-25T16:40:15.873Z,2.70
2018-11-25T16:42:45.433Z,2.60
2018-11-25T16:45:15.969Z,2.50
2018-11-25T16:47:44.609Z,2.50
2018-11-25T16:50:24.545Z,2.40
2018-11-25T16:52:45.486Z,2.30
2018-11-25T16:55:14.789Z,2.20
2018-11-25T16:57:43.817Z,2.30
2018-11-25T17:00:16.855Z,2.30
2018-11-25T17:02:46.197Z,2.50
2018-11-25T17:05:47.891Z,2.70
2018-11-25T17:08:49.957Z,2.90
2018-11-25T17:11:18.932Z,3.10
2018-11-25T17:13:47.783Z,3.20
2018-11-25T17:16:16.344Z,3.20
2018-11-25T17:18:45.533Z,3.30
2018-11-25T17:21:13.889Z,3.30
2018-11-25T17:23:43.358Z,3.20
2018-11-25T17:26:12.795Z,3.20
2018-11-25T17:28:41.174Z,3.10
2018-11-25T17:31:09.474Z,3.10
2018-11-25T17:33:37.901Z,3.00
2018-11-25T17:36:06.481Z,3.00
2018-11-25T17:38:34.730Z,3.00
2018-11-25T17:41:04.090Z,2.90
2018-11-25T17:43:32.938Z,3.00
2018-11-25T17:46:01.781Z,3.00
2018-11-25T17:48:30.352Z,2.90
2018-11-25T17:50:59.897Z,2.80
2018-11-25T17:53:28.806Z,2.70
2018-11-25T17:55:57.360Z,2.70
2018-11-25T17:58:26.744Z,2.50
2018-11-25T18:01:00.664Z,2.50
2018-11-25T18:03:30.497Z,2.60
2018-11-25T18:05:59.394Z,2.70
2018-11-25T18:08:28.788Z,2.80
2018-11-25T18:10:57.257Z,2.80
2018-11-25T18:13:27.001Z,2.90
2018-11-25T18:15:56.818Z,3.00
2018-11-25T18:18:29.313Z,3.10
2018-11-25T18:20:59.692Z,3.10
2018-11-25T18:23:28.447Z,3.10
2018-11-25T18:25:57.424Z,3.30
2018-11-25T18:28:26.597Z,3.30
2018-11-25T18:30:54.904Z,3.40
2018-11-25T18:33:23.349Z,3.40
2018-11-25T18:35:51.942Z,3.50
2018-11-25T18:38:20.777Z,3.50
2018-11-25T18:40:49.395Z,3.50
2018-11-25T18:43:18.108Z,3.50
2018-11-25T18:45:46.392Z,3.50
2018-11-25T18:48:16.693Z,3.60
2018-11-25T18:50:44.987Z,3.60
2018-11-25T18:53:13.881Z,3.60
2018-11-25T18:55:41.273Z,3.60
2018-11-25T18:58:09.560Z,3.70
2018-11-25T19:00:44.082Z,3.70
2018-11-25T19:03:13.417Z,3.70
2018-11-25T19:05:42.672Z,3.70
2018-11-25T19:08:11.666Z,3.70
2018-11-25T19:10:39.962Z,3.80
2018-11-25T19:13:08.628Z,3.80
2018-11-25T19:15:38.203Z,3.80
2018-11-25T19:18:08.170Z,3.80
2018-11-25T19:20:36.817Z,3.80
2018-11-25T19:23:06.532Z,3.80
2018-11-25T19:25:35.450Z,3.80
2018-11-25T19:28:04.713Z,3.80
2018-11-25T19:30:34.225Z,3.80
2018-11-25T19:33:02.897Z,3.80
2018-11-25T19:35:31.142Z,3.80
2018-11-25T19:37:59.674Z,3.80
2018-11-25T19:40:28.252Z,3.80
2018-11-25T19:42:57.229Z,3.80
2018-11-25T19:45:27.457Z,3.80
2018-11-25T19:47:56.769Z,3.80
2018-11-25T19:50:29.591Z,3.80
2018-11-25T19:52:58.957Z,3.80
2018-11-25T19:55:27.455Z,3.80
2018-11-25T19:57:56.429Z,3.80
2018-11-25T20:00:25.401Z,3.80
2018-11-25T20:02:53.817Z,3.80
2018-11-25T20:05:22.941Z,3.80
2018-11-25T20:07:51.221Z,3.80
2018-11-25T20:10:20.605Z,3.80
2018-11-25T20:12:50.054Z,3.80
2018-11-25T20:15:19.275Z,3.80
2018-11-25T20:17:54.475Z,3.80
2018-11-25T20:20:19.449Z,3.80
2018-11-25T20:22:49.949Z,3.80
2018-11-25T20:25:18.564Z,3.80
2018-11-25T20:27:48.071Z,3.80
2018-11-25T20:30:18.281Z,3.80
2018-11-25T20:32:52.045Z,3.80
2018-11-25T20:35:20.369Z,3.90
2018-11-25T20:37:53.897Z,3.90
2018-11-25T20:40:22.449Z,3.90
2018-11-25T20:42:51.342Z,3.90
2018-11-25T20:45:26.061Z,3.90
2018-11-25T20:47:55.885Z,3.90
2018-11-25T20:50:24.269Z,4.00
2018-11-25T20:52:58.346Z,4.00
2018-11-25T20:55:26.584Z,4.00
2018-11-25T20:57:55.124Z,4.00
2018-11-25T21:00:25.393Z,4.00
2018-11-25T21:02:53.727Z,4.00
2018-11-25T21:05:23.817Z,4.10
2018-11-25T21:07:51.353Z,4.10
2018-11-25T21:10:20.813Z,4.10
2018-11-25T21:12:51.544Z,4.10
2018-11-25T21:15:20.201Z,4.20
2018-11-25T21:17:48.544Z,4.30
2018-11-25T21:20:18.637Z,4.30
2018-11-25T21:22:47.765Z,4.20
2018-11-25T21:25:17.965Z,4.20
2018-11-25T21:27:47.026Z,4.30
2018-11-25T21:30:23.349Z,4.40
2018-11-25T21:32:53.821Z,4.30
2018-11-25T21:35:22.489Z,4.30
2018-11-25T21:37:51.563Z,4.30
2018-11-25T21:40:21.874Z,4.30
2018-11-25T21:42:50.755Z,4.20
2018-11-25T21:45:21.058Z,4.20
2018-11-25T21:47:50.113Z,4.20
2018-11-25T21:50:20.290Z,4.20
2018-11-25T21:52:49.954Z,4.10
2018-11-25T21:55:18.857Z,4.10
2018-11-25T21:57:48.323Z,4.20
2018-11-25T22:00:17.951Z,4.20
2018-11-25T22:02:46.857Z,4.10
2018-11-25T22:05:15.393Z,4.00
2018-11-25T22:07:44.661Z,3.90
2018-11-25T22:10:15.144Z,3.90
2018-11-25T22:12:44.302Z,3.80
2018-11-25T22:15:21.140Z,3.80
2018-11-25T22:17:49.826Z,3.80
2018-11-25T22:20:18.308Z,3.70
2018-11-25T22:22:47.455Z,3.60
2018-11-25T22:25:17.165Z,3.60
2018-11-25T22:27:45.683Z,3.60
2018-11-25T22:30:15.606Z,3.50
2018-11-25T22:32:44.411Z,3.50
2018-11-25T22:35:14.815Z,3.50
2018-11-25T22:37:43.311Z,3.50
2018-11-25T22:40:13.676Z,3.50
2018-11-25T22:42:43.414Z,3.50
2018-11-25T22:45:12.837Z,3.50
2018-11-25T22:47:41.171Z,3.50
2018-11-25T22:50:15.059Z,3.50
2018-11-25T22:52:43.729Z,3.50
2018-11-25T22:55:14.185Z,3.50
2018-11-25T22:57:44.663Z,3.50
2018-11-25T23:00:17.701Z,3.50
2018-11-25T23:02:46.216Z,3.50
2018-11-25T23:05:25.685Z,3.50
2018-11-25T23:07:54.132Z,3.50
2018-11-25T23:10:22.721Z,3.50
2018-11-25T23:12:51.026Z,3.50
2018-11-25T23:15:20.431Z,3.50
2018-11-25T23:17:48.949Z,3.50
2018-11-25T23:20:17.158Z,3.50
2018-11-25T23:22:45.565Z,3.40
2018-11-25T23:25:14.697Z,3.40
2018-11-25T23:27:44.006Z,3.50
2018-11-25T23:30:13.345Z,3.40
2018-11-25T23:32:42.503Z,3.40
2018-11-25T23:35:13.097Z,3.40
2018-11-25T23:37:41.641Z,3.40
2018-11-25T23:40:10.545Z,3.40
2018-11-25T23:42:39.957Z,3.40
2018-11-25T23:45:10.778Z,3.40
2018-11-25T23:47:39.188Z,3.40
2018-11-25T23:50:09.184Z,3.30
2018-11-25T23:52:38.100Z,3.40
2018-11-25T23:55:08.009Z,3.40
2018-11-25T23:57:37.058Z,3.40
